DAL6532 KDTW-KIND
Flight info
| Callsign | DAL6532 |
|---|---|
| Flight time | N/A |
| Altitude | 32000 |
| Route | KDTW/21R N0454F320 SNDRS3 TORRR DCT SNKPT SNKPT2 KIND/05R |
| Aircraft | B739/M-SDE2E3FGHIRWXY/LB1 |
Departure
| Time | 2026-05-06 03:07 |
|---|---|
| Airport | Detroit Metropolitan Wayne County Airport (KDTW) |
Arrival
| Time | N/A |
|---|---|
| Airport | Indianapolis International Airport (KIND) |
| Time | Latitude | Longitude | Altitude | Speed | Heading |
|---|---|---|---|---|---|
| 2026-05-06 02:35 | 42.20497 | -83.35978 | 645 ft | 0 kts | 299° |
| 2026-05-06 02:50 | 42.20496 | -83.35975 | 645 ft | 2 kts | 299° |
| 2026-05-06 02:50 | 42.20488 | -83.35956 | 647 ft | 2 kts | 299° |
| 2026-05-06 02:50 | 42.20480 | -83.35937 | 647 ft | 2 kts | 299° |
| 2026-05-06 02:51 | 42.20473 | -83.35918 | 648 ft | 2 kts | 299° |
| 2026-05-06 02:51 | 42.20470 | -83.35911 | 648 ft | 0 kts | 299° |
| 2026-05-06 02:54 | 42.20472 | -83.35917 | 647 ft | 3 kts | 295° |
| 2026-05-06 02:54 | 42.20471 | -83.35940 | 646 ft | 2 kts | 241° |
| 2026-05-06 02:55 | 42.20458 | -83.35945 | 646 ft | 3 kts | 186° |
| 2026-05-06 02:55 | 42.20412 | -83.35961 | 645 ft | 12 kts | 203° |
| 2026-05-06 02:55 | 42.20340 | -83.36024 | 645 ft | 12 kts | 214° |
| 2026-05-06 02:55 | 42.20275 | -83.36079 | 645 ft | 10 kts | 202° |
| 2026-05-06 02:56 | 42.20240 | -83.36097 | 645 ft | 0 kts | 204° |
| 2026-05-06 02:57 | 42.20239 | -83.36098 | 645 ft | 1 kts | 204° |
| 2026-05-06 02:57 | 42.20219 | -83.36111 | 647 ft | 8 kts | 206° |
| 2026-05-06 02:57 | 42.20157 | -83.36070 | 645 ft | 12 kts | 99° |
| 2026-05-06 02:58 | 42.20165 | -83.35906 | 645 ft | 22 kts | 88° |
| 2026-05-06 02:58 | 42.20168 | -83.35700 | 645 ft | 22 kts | 89° |
| 2026-05-06 02:58 | 42.20171 | -83.35501 | 646 ft | 21 kts | 89° |
| 2026-05-06 02:58 | 42.20175 | -83.35306 | 647 ft | 20 kts | 89° |
| 2026-05-06 02:59 | 42.20208 | -83.35177 | 647 ft | 15 kts | 31° |
| 2026-05-06 02:59 | 42.20299 | -83.35116 | 647 ft | 14 kts | 31° |
| 2026-05-06 02:59 | 42.20383 | -83.35051 | 647 ft | 14 kts | 28° |
| 2026-05-06 02:59 | 42.20467 | -83.35003 | 648 ft | 13 kts | 2° |
| 2026-05-06 03:00 | 42.20553 | -83.35006 | 646 ft | 13 kts | 26° |
| 2026-05-06 03:00 | 42.20630 | -83.34950 | 646 ft | 13 kts | 29° |
| 2026-05-06 03:00 | 42.20712 | -83.34890 | 647 ft | 14 kts | 28° |
| 2026-05-06 03:00 | 42.20804 | -83.34821 | 646 ft | 16 kts | 32° |
| 2026-05-06 03:01 | 42.20868 | -83.34703 | 647 ft | 16 kts | 51° |
| 2026-05-06 03:01 | 42.20958 | -83.34628 | 647 ft | 15 kts | 28° |
| 2026-05-06 03:01 | 42.21047 | -83.34562 | 646 ft | 14 kts | 28° |
| 2026-05-06 03:01 | 42.21133 | -83.34499 | 646 ft | 14 kts | 29° |
| 2026-05-06 03:02 | 42.21215 | -83.34438 | 646 ft | 13 kts | 29° |
| 2026-05-06 03:02 | 42.21293 | -83.34380 | 646 ft | 13 kts | 29° |
| 2026-05-06 03:02 | 42.21370 | -83.34324 | 646 ft | 12 kts | 29° |
| 2026-05-06 03:02 | 42.21445 | -83.34268 | 647 ft | 12 kts | 29° |
| 2026-05-06 03:03 | 42.21528 | -83.34206 | 648 ft | 15 kts | 29° |
| 2026-05-06 03:03 | 42.21626 | -83.34166 | 646 ft | 15 kts | 359° |
| 2026-05-06 03:03 | 42.21727 | -83.34168 | 644 ft | 14 kts | 359° |
| 2026-05-06 03:03 | 42.21822 | -83.34169 | 645 ft | 13 kts | 5° |
| 2026-05-06 03:04 | 42.21907 | -83.34124 | 647 ft | 13 kts | 29° |
| 2026-05-06 03:04 | 42.21986 | -83.34065 | 645 ft | 13 kts | 29° |
| 2026-05-06 03:04 | 42.22078 | -83.33997 | 647 ft | 17 kts | 29° |
| 2026-05-06 03:04 | 42.22198 | -83.33909 | 646 ft | 22 kts | 28° |
| 2026-05-06 03:05 | 42.22342 | -83.33805 | 647 ft | 25 kts | 28° |
| 2026-05-06 03:05 | 42.22493 | -83.33694 | 648 ft | 25 kts | 28° |
| 2026-05-06 03:05 | 42.22593 | -83.33622 | 646 ft | 16 kts | 28° |
| 2026-05-06 03:05 | 42.22669 | -83.33566 | 646 ft | 11 kts | 28° |
| 2026-05-06 03:06 | 42.22749 | -83.33513 | 646 ft | 12 kts | 14° |
| 2026-05-06 03:06 | 42.22806 | -83.33597 | 644 ft | 16 kts | 268° |
| 2026-05-06 03:06 | 42.22714 | -83.33700 | 645 ft | 27 kts | 207° |
| 2026-05-06 03:06 | 42.22312 | -83.33994 | 645 ft | 103 kts | 209° |
| 2026-05-06 03:07 | 42.21796 | -83.34376 | 647 ft | 146 kts | 209° |
| 2026-05-06 03:07 | 42.20776 | -83.35149 | 873 ft | 179 kts | 209° |
| 2026-05-06 03:07 | 42.19684 | -83.35918 | 1772 ft | 179 kts | 206° |
| 2026-05-06 03:07 | 42.18379 | -83.36463 | 2115 ft | 215 kts | 197° |
| 2026-05-06 03:08 | 42.16832 | -83.37008 | 2390 ft | 245 kts | 198° |
| 2026-05-06 03:08 | 42.15244 | -83.37616 | 3360 ft | 232 kts | 199° |
| 2026-05-06 03:08 | 42.13665 | -83.38248 | 3813 ft | 242 kts | 199° |
| 2026-05-06 03:08 | 42.12038 | -83.38898 | 4458 ft | 242 kts | 199° |
| 2026-05-06 03:09 | 42.10371 | -83.39573 | 4833 ft | 261 kts | 199° |
| 2026-05-06 03:09 | 42.08631 | -83.40277 | 5529 ft | 264 kts | 199° |
| 2026-05-06 03:09 | 42.06949 | -83.41180 | 6449 ft | 258 kts | 215° |
| 2026-05-06 03:09 | 42.05499 | -83.42591 | 6848 ft | 257 kts | 220° |
| 2026-05-06 03:10 | 42.04072 | -83.44043 | 6989 ft | 258 kts | 219° |
| 2026-05-06 03:10 | 42.02635 | -83.45480 | 6999 ft | 257 kts | 219° |
| 2026-05-06 03:10 | 42.01189 | -83.46908 | 7013 ft | 258 kts | 219° |
| 2026-05-06 03:10 | 41.99734 | -83.48337 | 7014 ft | 259 kts | 219° |
| 2026-05-06 03:11 | 41.98286 | -83.49772 | 7046 ft | 259 kts | 220° |
| 2026-05-06 03:11 | 41.96853 | -83.51247 | 7495 ft | 261 kts | 220° |
| 2026-05-06 03:11 | 41.95423 | -83.52728 | 8348 ft | 259 kts | 220° |
| 2026-05-06 03:11 | 41.93999 | -83.54204 | 9174 ft | 259 kts | 220° |
| 2026-05-06 03:12 | 41.92565 | -83.55689 | 9928 ft | 261 kts | 220° |
| 2026-05-06 03:12 | 41.91107 | -83.57197 | 10405 ft | 273 kts | 220° |
| 2026-05-06 03:12 | 41.89543 | -83.58816 | 10564 ft | 295 kts | 220° |
| 2026-05-06 03:12 | 41.87857 | -83.60559 | 10719 ft | 316 kts | 220° |
| 2026-05-06 03:13 | 41.86061 | -83.62410 | 10880 ft | 335 kts | 220° |
| 2026-05-06 03:13 | 41.84182 | -83.64344 | 11247 ft | 345 kts | 219° |
| 2026-05-06 03:13 | 41.82288 | -83.66286 | 11868 ft | 347 kts | 219° |
| 2026-05-06 03:13 | 41.80366 | -83.68256 | 12535 ft | 349 kts | 219° |
| 2026-05-06 03:14 | 41.78430 | -83.70241 | 13134 ft | 352 kts | 219° |
| 2026-05-06 03:14 | 41.76474 | -83.72247 | 13738 ft | 355 kts | 219° |
| 2026-05-06 03:14 | 41.74508 | -83.74262 | 14306 ft | 357 kts | 219° |
| 2026-05-06 03:14 | 41.72535 | -83.76281 | 14892 ft | 358 kts | 220° |
| 2026-05-06 03:15 | 41.70549 | -83.78312 | 15473 ft | 360 kts | 220° |
| 2026-05-06 03:15 | 41.68500 | -83.80253 | 16020 ft | 363 kts | 216° |
| 2026-05-06 03:15 | 41.66345 | -83.82029 | 16547 ft | 366 kts | 214° |
| 2026-05-06 03:15 | 41.64140 | -83.83761 | 17058 ft | 369 kts | 213° |
| 2026-05-06 03:16 | 41.61918 | -83.85490 | 17558 ft | 371 kts | 214° |
| 2026-05-06 03:16 | 41.59683 | -83.87240 | 18041 ft | 374 kts | 214° |
| 2026-05-06 03:16 | 41.57436 | -83.89014 | 18453 ft | 376 kts | 214° |
| 2026-05-06 03:16 | 41.55177 | -83.90809 | 18873 ft | 379 kts | 215° |
| 2026-05-06 03:17 | 41.52903 | -83.92622 | 19296 ft | 381 kts | 215° |
| 2026-05-06 03:17 | 41.50629 | -83.94439 | 19727 ft | 383 kts | 215° |
| 2026-05-06 03:17 | 41.48336 | -83.96271 | 20171 ft | 385 kts | 215° |
| 2026-05-06 03:17 | 41.46037 | -83.98108 | 20614 ft | 386 kts | 215° |
| 2026-05-06 03:18 | 41.43726 | -83.99953 | 20986 ft | 390 kts | 215° |
| 2026-05-06 03:18 | 41.41369 | -84.01836 | 21100 ft | 399 kts | 215° |
| 2026-05-06 03:18 | 41.38973 | -84.03746 | 21381 ft | 403 kts | 215° |
| 2026-05-06 03:18 | 41.36597 | -84.05636 | 21789 ft | 403 kts | 215° |
| 2026-05-06 03:19 | 41.34187 | -84.07551 | 21865 ft | 405 kts | 215° |
| 2026-05-06 03:19 | 41.31769 | -84.09473 | 21875 ft | 405 kts | 215° |
| 2026-05-06 03:19 | 41.29347 | -84.11395 | 21882 ft | 404 kts | 215° |
| 2026-05-06 03:19 | 41.26932 | -84.13310 | 21886 ft | 404 kts | 215° |
| 2026-05-06 03:20 | 41.22483 | -84.17726 | 21899 ft | 397 kts | 226° |
| 2026-05-06 03:20 | 41.20490 | -84.20262 | 21889 ft | 397 kts | 227° |
| 2026-05-06 03:20 | 41.18506 | -84.22819 | 21892 ft | 398 kts | 227° |
| 2026-05-06 03:21 | 41.16511 | -84.25381 | 21890 ft | 398 kts | 227° |
| 2026-05-06 03:21 | 41.14515 | -84.27926 | 21891 ft | 398 kts | 226° |
| 2026-05-06 03:21 | 41.12510 | -84.30461 | 21892 ft | 399 kts | 226° |
| 2026-05-06 03:21 | 41.10497 | -84.32992 | 21892 ft | 399 kts | 226° |
| 2026-05-06 03:22 | 41.08481 | -84.35516 | 21887 ft | 398 kts | 226° |
| 2026-05-06 03:22 | 41.06490 | -84.38002 | 21889 ft | 398 kts | 226° |
| 2026-05-06 03:22 | 41.04447 | -84.40549 | 21893 ft | 398 kts | 226° |
| 2026-05-06 03:22 | 41.02430 | -84.43059 | 21899 ft | 397 kts | 226° |
| 2026-05-06 03:23 | 41.00418 | -84.45562 | 21898 ft | 397 kts | 226° |
| 2026-05-06 03:23 | 40.98403 | -84.48066 | 21901 ft | 398 kts | 226° |
| 2026-05-06 03:23 | 40.96388 | -84.50568 | 21907 ft | 398 kts | 226° |
| 2026-05-06 03:23 | 40.94369 | -84.53072 | 21907 ft | 397 kts | 226° |
| 2026-05-06 03:24 | 40.92381 | -84.55537 | 21902 ft | 397 kts | 226° |
| 2026-05-06 03:24 | 40.90365 | -84.58033 | 21906 ft | 397 kts | 226° |
| 2026-05-06 03:24 | 40.88354 | -84.60522 | 21909 ft | 397 kts | 226° |
| 2026-05-06 03:24 | 40.86335 | -84.63017 | 21906 ft | 397 kts | 226° |
| 2026-05-06 03:25 | 40.84321 | -84.65506 | 21907 ft | 397 kts | 226° |
| 2026-05-06 03:25 | 40.82304 | -84.67995 | 21906 ft | 397 kts | 226° |
| 2026-05-06 03:25 | 40.80287 | -84.70482 | 21909 ft | 397 kts | 226° |
| 2026-05-06 03:25 | 40.78267 | -84.72971 | 21912 ft | 397 kts | 226° |
| 2026-05-06 03:26 | 40.76249 | -84.75455 | 21898 ft | 397 kts | 226° |
| 2026-05-06 03:26 | 40.74225 | -84.77944 | 21898 ft | 397 kts | 226° |
| 2026-05-06 03:26 | 40.72209 | -84.80421 | 21888 ft | 397 kts | 226° |
| 2026-05-06 03:26 | 40.70187 | -84.82904 | 21904 ft | 397 kts | 226° |
| 2026-05-06 03:27 | 40.68165 | -84.85384 | 21900 ft | 397 kts | 226° |
| 2026-05-06 03:27 | 40.66144 | -84.87861 | 21894 ft | 397 kts | 226° |
| 2026-05-06 03:27 | 40.64121 | -84.90338 | 21901 ft | 397 kts | 226° |
| 2026-05-06 03:27 | 40.62095 | -84.92818 | 21902 ft | 398 kts | 226° |
| 2026-05-06 03:28 | 40.60066 | -84.95298 | 21903 ft | 398 kts | 226° |
| 2026-05-06 03:28 | 40.58042 | -84.97769 | 21902 ft | 398 kts | 226° |
| 2026-05-06 03:28 | 40.56011 | -85.00247 | 21904 ft | 397 kts | 226° |
| 2026-05-06 03:28 | 40.53985 | -85.02717 | 21907 ft | 397 kts | 226° |
| 2026-05-06 03:29 | 40.51957 | -85.05188 | 21907 ft | 397 kts | 226° |
| 2026-05-06 03:29 | 40.49929 | -85.07657 | 21906 ft | 397 kts | 226° |
| 2026-05-06 03:29 | 40.47900 | -85.10124 | 21909 ft | 397 kts | 226° |
| 2026-05-06 03:29 | 40.45872 | -85.12589 | 21903 ft | 397 kts | 226° |
| 2026-05-06 03:30 | 40.43845 | -85.15051 | 21903 ft | 397 kts | 226° |
| 2026-05-06 03:30 | 40.41819 | -85.17508 | 21894 ft | 393 kts | 226° |
| 2026-05-06 03:30 | 40.39856 | -85.19881 | 21882 ft | 374 kts | 226° |
| 2026-05-06 03:30 | 40.37983 | -85.22143 | 21878 ft | 359 kts | 226° |
| 2026-05-06 03:31 | 40.36157 | -85.24353 | 21884 ft | 356 kts | 226° |
| 2026-05-06 03:31 | 40.34343 | -85.26551 | 21867 ft | 356 kts | 226° |
| 2026-05-06 03:31 | 40.32508 | -85.28774 | 21464 ft | 358 kts | 226° |
| 2026-05-06 03:31 | 40.30684 | -85.30979 | 20959 ft | 355 kts | 226° |
| 2026-05-06 03:32 | 40.28880 | -85.33156 | 20422 ft | 351 kts | 226° |
| 2026-05-06 03:32 | 40.27092 | -85.35311 | 19906 ft | 348 kts | 226° |
| 2026-05-06 03:32 | 40.25318 | -85.37447 | 19383 ft | 345 kts | 226° |
| 2026-05-06 03:32 | 40.23655 | -85.39620 | 18867 ft | 340 kts | 234° |
| 2026-05-06 03:33 | 40.22407 | -85.42207 | 18423 ft | 334 kts | 243° |
| 2026-05-06 03:33 | 40.21288 | -85.44872 | 17908 ft | 334 kts | 243° |
| 2026-05-06 03:33 | 40.20173 | -85.47532 | 17410 ft | 333 kts | 243° |
| 2026-05-06 03:33 | 40.19054 | -85.50183 | 16989 ft | 331 kts | 242° |
| 2026-05-06 03:34 | 40.17934 | -85.52811 | 16532 ft | 331 kts | 242° |
| 2026-05-06 03:34 | 40.16814 | -85.55425 | 16083 ft | 329 kts | 242° |
| 2026-05-06 03:34 | 40.15694 | -85.58025 | 15635 ft | 327 kts | 242° |
| 2026-05-06 03:34 | 40.14582 | -85.60602 | 15183 ft | 324 kts | 242° |
| 2026-05-06 03:35 | 40.13487 | -85.63146 | 14838 ft | 318 kts | 242° |
| 2026-05-06 03:35 | 40.12415 | -85.65651 | 14542 ft | 313 kts | 242° |
| 2026-05-06 03:35 | 40.11353 | -85.68141 | 14256 ft | 315 kts | 242° |
| 2026-05-06 03:35 | 40.10280 | -85.70654 | 13960 ft | 318 kts | 242° |
| 2026-05-06 03:36 | 40.09207 | -85.73165 | 13657 ft | 316 kts | 242° |
| 2026-05-06 03:36 | 40.08135 | -85.75668 | 13326 ft | 314 kts | 242° |
| 2026-05-06 03:36 | 40.07069 | -85.78152 | 13008 ft | 313 kts | 242° |
| 2026-05-06 03:36 | 40.05937 | -85.80572 | 12697 ft | 313 kts | 233° |
| 2026-05-06 03:37 | 40.04386 | -85.82569 | 12412 ft | 314 kts | 223° |
| 2026-05-06 03:37 | 40.02676 | -85.84351 | 12147 ft | 315 kts | 221° |
| 2026-05-06 03:37 | 40.00964 | -85.86086 | 11865 ft | 315 kts | 221° |
| 2026-05-06 03:37 | 39.99235 | -85.87842 | 11575 ft | 315 kts | 221° |
| 2026-05-06 03:38 | 39.97511 | -85.89606 | 11283 ft | 313 kts | 221° |
| 2026-05-06 03:38 | 39.95819 | -85.91349 | 10998 ft | 306 kts | 221° |
| 2026-05-06 03:38 | 39.94175 | -85.93050 | 10705 ft | 299 kts | 221° |
| 2026-05-06 03:38 | 39.92566 | -85.94716 | 10433 ft | 292 kts | 221° |
| 2026-05-06 03:39 | 39.90993 | -85.96344 | 10209 ft | 284 kts | 221° |
| 2026-05-06 03:39 | 39.89474 | -85.97902 | 10099 ft | 273 kts | 220° |
| 2026-05-06 03:39 | 39.88001 | -85.99371 | 10046 ft | 260 kts | 220° |
| 2026-05-06 03:39 | 39.86597 | -86.00762 | 9995 ft | 248 kts | 220° |
| 2026-05-06 03:40 | 39.85241 | -86.02108 | 9729 ft | 244 kts | 220° |
| 2026-05-06 03:40 | 39.83885 | -86.03457 | 9289 ft | 247 kts | 220° |
| 2026-05-06 03:40 | 39.82520 | -86.04816 | 8890 ft | 248 kts | 220° |
| 2026-05-06 03:40 | 39.81152 | -86.06178 | 8540 ft | 247 kts | 220° |
| 2026-05-06 03:41 | 39.79783 | -86.07538 | 8242 ft | 246 kts | 220° |
| 2026-05-06 03:41 | 39.78421 | -86.08892 | 8001 ft | 248 kts | 220° |
| 2026-05-06 03:41 | 39.77043 | -86.10260 | 7750 ft | 250 kts | 219° |
| 2026-05-06 03:41 | 39.75673 | -86.11618 | 7501 ft | 246 kts | 219° |
| 2026-05-06 03:42 | 39.74320 | -86.12954 | 7254 ft | 243 kts | 219° |
| 2026-05-06 03:42 | 39.72982 | -86.14264 | 7053 ft | 240 kts | 219° |
| 2026-05-06 03:42 | 39.71645 | -86.15573 | 6815 ft | 240 kts | 219° |
| 2026-05-06 03:42 | 39.70328 | -86.16862 | 6579 ft | 240 kts | 219° |
| 2026-05-06 03:43 | 39.68983 | -86.18177 | 6362 ft | 237 kts | 219° |
| 2026-05-06 03:43 | 39.67672 | -86.19458 | 6116 ft | 235 kts | 219° |
| 2026-05-06 03:43 | 39.66415 | -86.20743 | 5868 ft | 231 kts | 224° |
| 2026-05-06 03:43 | 39.65272 | -86.22182 | 5647 ft | 228 kts | 227° |
| 2026-05-06 03:44 | 39.64163 | -86.23640 | 5408 ft | 226 kts | 227° |
| 2026-05-06 03:44 | 39.63058 | -86.25085 | 5171 ft | 225 kts | 227° |
| 2026-05-06 03:44 | 39.61952 | -86.26514 | 4958 ft | 224 kts | 227° |
| 2026-05-06 03:44 | 39.60840 | -86.27944 | 4737 ft | 227 kts | 227° |
| 2026-05-06 03:45 | 39.59707 | -86.29396 | 4473 ft | 230 kts | 226° |
| 2026-05-06 03:45 | 39.58560 | -86.30860 | 4252 ft | 233 kts | 226° |
| 2026-05-06 03:45 | 39.57428 | -86.32377 | 4013 ft | 234 kts | 230° |
| 2026-05-06 03:45 | 39.56327 | -86.33921 | 3881 ft | 232 kts | 230° |
| 2026-05-06 03:46 | 39.55231 | -86.35463 | 3705 ft | 235 kts | 229° |
| 2026-05-06 03:46 | 39.54348 | -86.37239 | 3363 ft | 237 kts | 261° |
| 2026-05-06 03:46 | 39.54319 | -86.38612 | 3197 ft | 228 kts | 288° |
| 2026-05-06 03:46 | 39.55404 | -86.40701 | 2997 ft | 201 kts | 327° |
| 2026-05-06 03:47 | 39.56581 | -86.41474 | 2986 ft | 182 kts | 347° |
| 2026-05-06 03:47 | 39.57792 | -86.41650 | 2982 ft | 170 kts | 7° |
| 2026-05-06 03:47 | 39.58951 | -86.41427 | 2992 ft | 167 kts | 11° |
| 2026-05-06 03:47 | 39.60086 | -86.41164 | 3001 ft | 166 kts | 11° |
| 2026-05-06 03:48 | 39.61229 | -86.40892 | 2998 ft | 168 kts | 13° |
| 2026-05-06 03:48 | 39.62282 | -86.40243 | 2888 ft | 172 kts | 37° |
| 2026-05-06 03:48 | 39.63164 | -86.39192 | 2652 ft | 171 kts | 42° |
| 2026-05-06 03:48 | 39.64006 | -86.38124 | 2412 ft | 167 kts | 42° |
| 2026-05-06 03:49 | 39.64822 | -86.37086 | 2210 ft | 163 kts | 43° |
| 2026-05-06 03:49 | 39.65636 | -86.36046 | 2125 ft | 164 kts | 41° |
| 2026-05-06 03:49 | 39.66433 | -86.35026 | 2089 ft | 160 kts | 42° |
| 2026-05-06 03:49 | 39.67239 | -86.33995 | 1996 ft | 164 kts | 42° |
| 2026-05-06 03:50 | 39.68022 | -86.32998 | 2093 ft | 150 kts | 41° |
| 2026-05-06 03:50 | 39.68763 | -86.32068 | 1931 ft | 150 kts | 41° |
| 2026-05-06 03:50 | 39.69554 | -86.31027 | 1039 ft | 168 kts | 38° |
| 2026-05-06 03:50 | 39.70338 | -86.30038 | 803 ft | 146 kts | 45° |
| 2026-05-06 03:51 | 39.70776 | -86.29509 | 798 ft | 103 kts | 53° |